Time;durP1;ratioP1;P1;durP2;ratioP2;P2;SDS_P1;SDS_P2;PMS_P1;PMS_P2;Temp;Humidity;BMP_temperature;BMP_pressure;BME280_temperature;BME280_humidity;BME280_pressure;Samples;Min_cycle;Max_cycle;Signal;HPM_P1;HPM_P2
2021/08/30 00:01:51;;;;;;;3.47;2.60;;;;;;;;;;5033940;28;20246;-78
2021/08/30 00:04:19;;;;;;;3.03;2.73;;;;;;;;;;5033784;28;20236;-78
2021/08/30 00:06:48;;;;;;;2.50;2.30;;;;;;;;;;5034101;28;20236;-78
2021/08/30 00:09:16;;;;;;;7.00;2.50;;;;;;;;;;5032821;28;20203;-78
2021/08/30 00:11:43;;;;;;;4.57;3.07;;;;;;;;;;5032946;28;20254;-78
2021/08/30 00:14:09;;;;;;;3.20;2.37;;;;;;;;;;5032452;28;20208;-78
2021/08/30 00:16:36;;;;;;;4.23;2.40;;;;;;;;;;5032712;28;20735;-78
2021/08/30 00:19:03;;;;;;;2.80;2.40;;;;;;;;;;5032406;28;20239;-78
2021/08/30 00:21:31;;;;;;;5.37;2.60;;;;;;;;;;5033699;28;20683;-78
2021/08/30 00:23:58;;;;;;;3.00;2.80;;;;;;;;;;5031945;28;20227;-79
2021/08/30 00:26:24;;;;;;;3.07;2.77;;;;;;;;;;5032507;28;20200;-78
2021/08/30 00:28:51;;;;;;;2.80;2.60;;;;;;;;;;5032613;28;20231;-78
2021/08/30 00:31:17;;;;;;;3.23;2.47;;;;;;;;;;5032499;28;20192;-78
2021/08/30 00:33:44;;;;;;;2.90;2.67;;;;;;;;;;5032113;28;20574;-78
2021/08/30 00:36:11;;;;;;;2.80;2.53;;;;;;;;;;5033542;28;20240;-78
2021/08/30 00:38:39;;;;;;;3.00;2.80;;;;;;;;;;5031373;28;20251;-78
2021/08/30 00:41:06;;;;;;;2.83;2.30;;;;;;;;;;5031681;28;20258;-78
2021/08/30 00:43:32;;;;;;;2.63;2.53;;;;;;;;;;5032287;28;20224;-78
2021/08/30 00:46:00;;;;;;;3.40;3.10;;;;;;;;;;5031911;28;20215;-78
2021/08/30 00:48:27;;;;;;;3.67;3.30;;;;;;;;;;5031310;28;20223;-78
2021/08/30 00:50:53;;;;;;;3.83;3.37;;;;;;;;;;5031610;28;20255;-79
2021/08/30 00:53:20;;;;;;;4.90;3.60;;;;;;;;;;5033251;28;20695;-78
2021/08/30 00:55:48;;;;;;;3.83;3.53;;;;;;;;;;5031762;28;20262;-78
2021/08/30 00:58:15;;;;;;;4.10;3.70;;;;;;;;;;5032860;28;20620;-78
2021/08/30 01:00:43;;;;;;;4.47;4.03;;;;;;;;;;5031790;28;20718;-79
2021/08/30 01:03:10;;;;;;;3.90;3.60;;;;;;;;;;5031568;28;20224;-78
2021/08/30 01:05:38;;;;;;;4.67;4.27;;;;;;;;;;5031664;28;20239;-78
2021/08/30 01:08:09;;;;;;;7.80;4.10;;;;;;;;;;5030947;28;20227;-78
2021/08/30 01:10:41;;;;;;;4.83;4.00;;;;;;;;;;5031214;28;20204;-78
2021/08/30 01:13:13;;;;;;;4.47;4.07;;;;;;;;;;5032598;28;20240;-77
2021/08/30 01:15:43;;;;;;;4.80;4.50;;;;;;;;;;5032354;28;20240;-79
2021/08/30 01:18:12;;;;;;;4.17;3.97;;;;;;;;;;5032125;28;20739;-78
2021/08/30 01:20:45;;;;;;;4.70;4.30;;;;;;;;;;5031398;28;20192;-78
2021/08/30 01:23:12;;;;;;;4.80;4.50;;;;;;;;;;5030929;28;20239;-78
2021/08/30 01:25:38;;;;;;;5.27;4.77;;;;;;;;;;5032654;28;20204;-78
2021/08/30 01:28:05;;;;;;;5.63;4.67;;;;;;;;;;5043141;28;20251;-78
2021/08/30 01:30:36;;;;;;;4.60;4.20;;;;;;;;;;5034055;28;20349;-78
2021/08/30 01:33:04;;;;;;;4.87;4.53;;;;;;;;;;5033962;28;20203;-78
2021/08/30 01:35:32;;;;;;;4.90;4.50;;;;;;;;;;5051950;28;20253;-79
2021/08/30 01:38:00;;;;;;;5.03;4.73;;;;;;;;;;5033856;28;20257;-78
2021/08/30 01:40:28;;;;;;;4.70;4.40;;;;;;;;;;5034485;28;20657;-78
2021/08/30 01:42:55;;;;;;;5.33;4.63;;;;;;;;;;5034140;28;20659;-78
2021/08/30 01:45:23;;;;;;;5.50;5.00;;;;;;;;;;5051598;28;20219;-78
2021/08/30 01:47:50;;;;;;;4.63;4.33;;;;;;;;;;5051890;28;20246;-78
2021/08/30 01:50:20;;;;;;;5.10;4.53;;;;;;;;;;5050563;28;20251;-78
2021/08/30 01:52:47;;;;;;;5.60;5.10;;;;;;;;;;5033688;28;20263;-78
2021/08/30 01:55:18;;;;;;;4.90;4.53;;;;;;;;;;5051309;28;20242;-77
2021/08/30 02:00:42;;;;;;;5.20;4.70;;;;;;;;;;5032852;28;20678;-77
2021/08/30 02:00:43;;;;;;;5.73;5.33;;;;;;;;;;5050874;28;20211;-79
2021/08/30 02:03:10;;;;;;;5.50;5.10;;;;;;;;;;5033849;28;20633;-78
2021/08/30 02:05:38;;;;;;;4.93;4.63;;;;;;;;;;5051551;28;20759;-78
2021/08/30 02:08:05;;;;;;;5.10;4.70;;;;;;;;;;5051350;28;20239;-77
2021/08/30 02:10:32;;;;;;;5.27;4.87;;;;;;;;;;5033228;28;20736;-78
2021/08/30 02:12:58;;;;;;;5.17;4.80;;;;;;;;;;5051319;28;20203;-78
2021/08/30 02:15:25;;;;;;;4.87;4.47;;;;;;;;;;5050961;28;20597;-77
2021/08/30 02:17:54;;;;;;;4.60;4.30;;;;;;;;;;5033168;28;20238;-78
2021/08/30 02:20:25;;;;;;;5.03;4.73;;;;;;;;;;5051213;28;20600;-78
2021/08/30 02:22:53;;;;;;;5.80;5.13;;;;;;;;;;5033607;28;20262;-78
2021/08/30 02:25:20;;;;;;;5.10;4.60;;;;;;;;;;5033375;28;20234;-78
2021/08/30 02:27:48;;;;;;;4.80;4.50;;;;;;;;;;5050642;28;20266;-78
2021/08/30 02:30:18;;;;;;;4.70;4.37;;;;;;;;;;5050955;28;20262;-80
2021/08/30 02:32:45;;;;;;;5.33;5.00;;;;;;;;;;5051315;28;20206;-78
2021/08/30 02:35:14;;;;;;;4.50;4.20;;;;;;;;;;5050343;28;20254;-78
2021/08/30 02:37:41;;;;;;;5.23;4.63;;;;;;;;;;5033224;28;20667;-78
2021/08/30 02:40:11;;;;;;;4.80;4.40;;;;;;;;;;5050427;28;20261;-78
2021/08/30 02:42:37;;;;;;;6.00;4.40;;;;;;;;;;5050880;28;20607;-79
2021/08/30 02:45:06;;;;;;;4.50;4.30;;;;;;;;;;5050490;28;20258;-78
2021/08/30 02:47:33;;;;;;;4.60;4.30;;;;;;;;;;5051213;28;20214;-78
2021/08/30 02:50:01;;;;;;;4.90;4.50;;;;;;;;;;5050797;28;20239;-78
2021/08/30 02:52:29;;;;;;;4.50;4.20;;;;;;;;;;5033252;28;20207;-78
2021/08/30 02:54:55;;;;;;;4.70;4.40;;;;;;;;;;5050615;28;20235;-78
2021/08/30 02:57:24;;;;;;;4.93;4.43;;;;;;;;;;5050596;28;20257;-79
2021/08/30 02:59:51;;;;;;;4.53;4.33;;;;;;;;;;5032991;28;20253;-78
2021/08/30 03:02:19;;;;;;;5.53;5.13;;;;;;;;;;5053553;28;20215;-78
2021/08/30 03:04:46;;;;;;;5.30;5.00;;;;;;;;;;5037106;28;20219;-79
2021/08/30 03:07:13;;;;;;;5.20;4.80;;;;;;;;;;5036595;28;20234;-78
2021/08/30 03:09:40;;;;;;;5.37;4.97;;;;;;;;;;5054845;28;20231;-78
2021/08/30 03:12:07;;;;;;;5.20;4.30;;;;;;;;;;5054148;28;20235;-77
2021/08/30 03:14:38;;;;;;;4.60;4.20;;;;;;;;;;5036779;28;20230;-78
2021/08/30 03:17:05;;;;;;;4.40;4.10;;;;;;;;;;5036762;28;20218;-78
2021/08/30 03:19:32;;;;;;;4.50;4.20;;;;;;;;;;5036603;28;20269;-78
2021/08/30 03:22:00;;;;;;;5.37;4.33;;;;;;;;;;5054175;28;20242;-78
2021/08/30 03:24:28;;;;;;;4.50;4.20;;;;;;;;;;5035980;28;20195;-79
2021/08/30 03:26:55;;;;;;;4.77;4.30;;;;;;;;;;5036415;28;20196;-78
2021/08/30 03:29:22;;;;;;;4.73;4.43;;;;;;;;;;5054037;28;20599;-78
2021/08/30 03:31:51;;;;;;;4.57;4.27;;;;;;;;;;5054816;28;20215;-78
2021/08/30 03:34:19;;;;;;;4.53;4.20;;;;;;;;;;5054279;28;20222;-77
2021/08/30 03:36:46;;;;;;;5.10;4.70;;;;;;;;;;5053796;28;20238;-77
2021/08/30 03:39:13;;;;;;;4.73;4.43;;;;;;;;;;5053544;28;20669;-79
2021/08/30 03:41:40;;;;;;;4.67;4.30;;;;;;;;;;5035870;28;20731;-78
2021/08/30 03:44:09;;;;;;;4.57;4.33;;;;;;;;;;5035803;28;20226;-78
2021/08/30 03:46:36;;;;;;;5.00;4.27;;;;;;;;;;5036225;28;20226;-78
2021/08/30 03:49:04;;;;;;;5.20;4.80;;;;;;;;;;5054062;28;20207;-79
2021/08/30 03:51:31;;;;;;;5.03;4.47;;;;;;;;;;5054123;28;20259;-78
2021/08/30 03:53:58;;;;;;;5.80;5.23;;;;;;;;;;5054048;28;20211;-79
2021/08/30 03:56:26;;;;;;;16.40;5.60;;;;;;;;;;5053871;28;20253;-79
2021/08/30 03:58:53;;;;;;;8.10;5.07;;;;;;;;;;5036188;28;20237;-78
2021/08/30 04:01:24;;;;;;;5.67;5.07;;;;;;;;;;5036306;28;20706;-79
2021/08/30 04:03:52;;;;;;;6.10;4.90;;;;;;;;;;5035886;28;20232;-79
2021/08/30 04:06:20;;;;;;;6.03;5.13;;;;;;;;;;5036198;28;20272;-78
2021/08/30 04:08:47;;;;;;;4.93;4.63;;;;;;;;;;5054390;28;20230;-78
2021/08/30 04:11:15;;;;;;;5.33;4.83;;;;;;;;;;5053567;28;20588;-79
2021/08/30 04:13:42;;;;;;;5.93;5.50;;;;;;;;;;5052816;28;20233;-78
2021/08/30 04:16:09;;;;;;;5.73;5.30;;;;;;;;;;5035820;28;20187;-79
2021/08/30 04:18:36;;;;;;;4.80;4.50;;;;;;;;;;5053739;28;20180;-79
2021/08/30 04:21:02;;;;;;;5.10;4.80;;;;;;;;;;5035068;28;20247;-79
2021/08/30 04:23:30;;;;;;;6.13;4.97;;;;;;;;;;5053719;28;20207;-78
2021/08/30 04:25:57;;;;;;;5.93;5.43;;;;;;;;;;5035635;28;20222;-79
2021/08/30 04:28:24;;;;;;;5.43;5.13;;;;;;;;;;5053280;28;20278;-79
2021/08/30 04:30:52;;;;;;;6.10;5.60;;;;;;;;;;5035221;28;20187;-79
2021/08/30 04:33:21;;;;;;;5.90;5.27;;;;;;;;;;5035202;28;20238;-79
2021/08/30 04:35:47;;;;;;;6.20;5.70;;;;;;;;;;5035203;28;20245;-79
2021/08/30 04:38:14;;;;;;;6.50;5.33;;;;;;;;;;5035473;28;20218;-79
2021/08/30 04:40:42;;;;;;;6.10;5.60;;;;;;;;;;5035027;28;20246;-81
2021/08/30 04:43:09;;;;;;;6.00;5.43;;;;;;;;;;5035406;28;20265;-80
2021/08/30 04:45:36;;;;;;;5.77;5.17;;;;;;;;;;5035284;28;20257;-79
2021/08/30 04:48:03;;;;;;;5.40;5.00;;;;;;;;;;5053111;28;20238;-78
2021/08/30 04:50:30;;;;;;;6.03;5.50;;;;;;;;;;5053157;28;20235;-78
2021/08/30 04:52:57;;;;;;;5.60;5.20;;;;;;;;;;5035340;28;20260;-80
2021/08/30 04:55:24;;;;;;;6.10;5.60;;;;;;;;;;5035086;28;20280;-79
2021/08/30 04:57:52;;;;;;;6.10;5.60;;;;;;;;;;5035242;28;20223;-80
2021/08/30 05:00:18;;;;;;;6.43;5.83;;;;;;;;;;5035115;28;20317;-80
2021/08/30 05:02:45;;;;;;;6.00;5.50;;;;;;;;;;5034893;28;20214;-79
2021/08/30 05:05:12;;;;;;;6.50;5.80;;;;;;;;;;5052585;28;20627;-79
2021/08/30 05:07:38;;;;;;;6.83;5.63;;;;;;;;;;5052977;28;20222;-80
2021/08/30 05:10:05;;;;;;;6.87;6.17;;;;;;;;;;5034985;28;20191;-80
2021/08/30 05:12:33;;;;;;;8.63;6.33;;;;;;;;;;5035334;28;20226;-80
2021/08/30 05:15:01;;;;;;;6.67;6.03;;;;;;;;;;5034893;28;20195;-80
2021/08/30 05:17:27;;;;;;;10.57;6.37;;;;;;;;;;5034396;28;20234;-79
2021/08/30 05:19:54;;;;;;;6.70;5.90;;;;;;;;;;5034816;28;20667;-79
2021/08/30 05:22:21;;;;;;;8.87;6.47;;;;;;;;;;5051476;28;20247;-80
2021/08/30 05:24:47;;;;;;;6.43;5.93;;;;;;;;;;5051983;28;20223;-80
2021/08/30 05:27:14;;;;;;;6.83;6.17;;;;;;;;;;5051579;28;20243;-80
2021/08/30 05:29:41;;;;;;;6.80;6.20;;;;;;;;;;5034430;28;20233;-80
2021/08/30 05:32:09;;;;;;;7.23;6.43;;;;;;;;;;5034699;28;20199;-80
2021/08/30 05:34:36;;;;;;;7.20;6.43;;;;;;;;;;5052842;28;20220;-80
2021/08/30 05:37:03;;;;;;;11.77;7.10;;;;;;;;;;5034730;28;20195;-80
2021/08/30 05:39:30;;;;;;;8.17;6.83;;;;;;;;;;5034659;28;20249;-81
2021/08/30 05:41:56;;;;;;;7.93;6.60;;;;;;;;;;5052223;28;20258;-80
2021/08/30 05:44:23;;;;;;;8.73;6.90;;;;;;;;;;5034488;28;20246;-80
2021/08/30 05:46:51;;;;;;;7.83;6.60;;;;;;;;;;5052381;28;20234;-80
2021/08/30 05:49:20;;;;;;;8.90;7.10;;;;;;;;;;5034530;28;20243;-80
2021/08/30 05:51:47;;;;;;;8.43;7.50;;;;;;;;;;5034388;28;20223;-80
2021/08/30 05:54:13;;;;;;;8.23;7.17;;;;;;;;;;5034453;28;20237;-80
2021/08/30 05:56:40;;;;;;;9.83;7.80;;;;;;;;;;5052297;28;20211;-79
2021/08/30 05:59:07;;;;;;;8.10;7.33;;;;;;;;;;5034116;28;20291;-79
2021/08/30 06:01:36;;;;;;;8.43;7.63;;;;;;;;;;5034229;28;20230;-79
2021/08/30 06:04:02;;;;;;;9.07;8.10;;;;;;;;;;5034444;28;20643;-79
2021/08/30 06:06:30;;;;;;;7.73;7.10;;;;;;;;;;5034347;28;20199;-80
2021/08/30 06:08:57;;;;;;;8.63;7.53;;;;;;;;;;5034685;28;20745;-79
2021/08/30 06:11:24;;;;;;;8.20;7.40;;;;;;;;;;5034283;28;20218;-79
2021/08/30 06:13:50;;;;;;;10.37;8.00;;;;;;;;;;5034040;28;20207;-80
2021/08/30 06:16:17;;;;;;;8.20;7.40;;;;;;;;;;5033972;28;20218;-79
2021/08/30 06:18:44;;;;;;;12.40;7.73;;;;;;;;;;5034022;28;20199;-79
2021/08/30 06:21:10;;;;;;;10.70;7.70;;;;;;;;;;5034167;28;20265;-81
2021/08/30 06:23:38;;;;;;;11.50;7.80;;;;;;;;;;5051655;28;20175;-80
2021/08/30 06:26:05;;;;;;;8.10;7.40;;;;;;;;;;5033834;28;20236;-80
2021/08/30 06:28:32;;;;;;;10.53;7.73;;;;;;;;;;5033833;28;20258;-80
2021/08/30 06:30:58;;;;;;;10.47;7.73;;;;;;;;;;5033738;28;20218;-80
2021/08/30 06:33:25;;;;;;;8.83;7.93;;;;;;;;;;5051692;28;20231;-80
2021/08/30 06:35:52;;;;;;;8.93;7.97;;;;;;;;;;5033441;28;20647;-80
2021/08/30 06:38:18;;;;;;;9.13;8.23;;;;;;;;;;5051583;28;20655;-79
2021/08/30 06:40:46;;;;;;;8.77;7.97;;;;;;;;;;5033781;28;20247;-80
2021/08/30 06:43:13;;;;;;;8.93;8.10;;;;;;;;;;5033796;28;20218;-79
2021/08/30 06:45:40;;;;;;;9.23;8.10;;;;;;;;;;5051542;28;20211;-80
2021/08/30 06:48:06;;;;;;;8.73;7.73;;;;;;;;;;5051407;28;20207;-79
2021/08/30 06:50:33;;;;;;;8.57;7.67;;;;;;;;;;5033669;28;20247;-79
2021/08/30 06:53:00;;;;;;;9.83;7.83;;;;;;;;;;5033526;28;20187;-80
2021/08/30 06:55:27;;;;;;;10.83;8.17;;;;;;;;;;5051959;28;20192;-80
2021/08/30 06:57:55;;;;;;;9.93;8.07;;;;;;;;;;5051370;28;20207;-79
2021/08/30 07:00:21;;;;;;;9.10;8.10;;;;;;;;;;5033481;28;20195;-80
2021/08/30 07:02:48;;;;;;;8.20;7.50;;;;;;;;;;5033617;28;20632;-79
2021/08/30 07:05:15;;;;;;;9.80;8.70;;;;;;;;;;5033727;28;20234;-80
2021/08/30 07:07:41;;;;;;;9.90;7.80;;;;;;;;;;5033811;28;20288;-80
2021/08/30 07:10:09;;;;;;;8.97;7.87;;;;;;;;;;5051144;28;20183;-80
2021/08/30 07:12:35;;;;;;;9.57;7.57;;;;;;;;;;5033635;28;20200;-81
2021/08/30 07:15:03;;;;;;;8.60;7.73;;;;;;;;;;5033554;28;20234;-80
2021/08/30 07:17:30;;;;;;;11.40;8.27;;;;;;;;;;5033623;28;20675;-80
2021/08/30 07:19:57;;;;;;;9.63;7.90;;;;;;;;;;5033522;28;20208;-81
2021/08/30 07:22:23;;;;;;;9.30;7.43;;;;;;;;;;5051090;28;20234;-81
2021/08/30 07:24:50;;;;;;;7.93;7.13;;;;;;;;;;5050732;28;20234;-80
2021/08/30 07:27:17;;;;;;;8.33;7.10;;;;;;;;;;5029672;28;20258;-81
2021/08/30 07:29:43;;;;;;;10.70;6.83;;;;;;;;;;5029421;28;20224;-80
2021/08/30 07:32:11;;;;;;;9.67;7.20;;;;;;;;;;5029917;28;20565;-82
2021/08/30 07:34:38;;;;;;;8.47;7.67;;;;;;;;;;5031204;28;20240;-80
2021/08/30 07:37:05;;;;;;;8.27;6.97;;;;;;;;;;5031339;28;20185;-80
2021/08/30 07:39:32;;;;;;;8.10;7.00;;;;;;;;;;5029394;28;20196;-80
2021/08/30 07:41:59;;;;;;;9.13;6.93;;;;;;;;;;5029361;28;20248;-80
2021/08/30 07:44:25;;;;;;;7.43;6.83;;;;;;;;;;5031126;28;20316;-80
2021/08/30 07:46:52;;;;;;;8.03;7.23;;;;;;;;;;5029907;28;20212;-81
2021/08/30 07:49:20;;;;;;;8.13;7.43;;;;;;;;;;5033102;28;20600;-79
2021/08/30 07:51:47;;;;;;;9.73;7.23;;;;;;;;;;5034640;28;20228;-79
2021/08/30 07:54:14;;;;;;;8.10;7.40;;;;;;;;;;5034587;28;20183;-79
2021/08/30 07:56:41;;;;;;;7.80;7.10;;;;;;;;;;5034829;28;20176;-79
2021/08/30 07:59:09;;;;;;;7.50;6.80;;;;;;;;;;5033163;28;20215;-79
2021/08/30 08:01:36;;;;;;;8.30;7.50;;;;;;;;;;5034076;28;20266;-79
2021/08/30 08:04:03;;;;;;;7.90;7.10;;;;;;;;;;5034399;28;20231;-79
2021/08/30 08:06:31;;;;;;;8.30;7.23;;;;;;;;;;5035025;28;20200;-80
2021/08/30 08:08:57;;;;;;;8.17;7.37;;;;;;;;;;5034648;28;20232;-79
2021/08/30 08:11:24;;;;;;;10.50;6.60;;;;;;;;;;5034423;28;20805;-80
2021/08/30 08:13:51;;;;;;;7.80;7.10;;;;;;;;;;5033049;28;20563;-79
2021/08/30 08:16:19;;;;;;;10.67;7.67;;;;;;;;;;5032530;28;20706;-81
2021/08/30 08:18:45;;;;;;;7.97;7.13;;;;;;;;;;5034823;28;20212;-80
2021/08/30 08:21:17;;;;;;;7.77;7.07;;;;;;;;;;5016824;28;20290;-80
2021/08/30 08:23:47;;;;;;;7.03;6.33;;;;;;;;;;5033535;28;20193;-80
2021/08/30 08:26:13;;;;;;;7.70;6.90;;;;;;;;;;5034574;28;20633;-79
2021/08/30 08:28:40;;;;;;;9.67;6.10;;;;;;;;;;5033228;28;20271;-81
2021/08/30 08:31:09;;;;;;;7.40;6.30;;;;;;;;;;5033247;28;20672;-80
2021/08/30 08:33:36;;;;;;;7.87;6.73;;;;;;;;;;5033489;28;20722;-80
2021/08/30 08:36:02;;;;;;;6.97;6.37;;;;;;;;;;5033248;28;20473;-81
2021/08/30 08:38:29;;;;;;;7.00;6.30;;;;;;;;;;5033229;28;20200;-80
2021/08/30 08:40:57;;;;;;;7.57;6.87;;;;;;;;;;5032686;28;20216;-78
2021/08/30 08:43:24;;;;;;;9.10;6.63;;;;;;;;;;5032744;28;20234;-78
2021/08/30 08:45:52;;;;;;;9.23;7.72;;;;;;;;;;5032185;28;21296;-78
2021/08/30 08:48:20;;;;;;;7.20;6.50;;;;;;;;;;5032504;28;20660;-80
2021/08/30 08:50:48;;;;;;;7.73;7.00;;;;;;;;;;5032394;28;20688;-78
2021/08/30 08:53:15;;;;;;;6.97;6.23;;;;;;;;;;5033488;28;20680;-78
2021/08/30 08:55:42;;;;;;;7.00;6.40;;;;;;;;;;5034402;28;20212;-79
2021/08/30 08:58:10;;;;;;;6.57;5.97;;;;;;;;;;5032818;28;20200;-79
2021/08/30 09:00:37;;;;;;;7.30;6.70;;;;;;;;;;5032367;28;20223;-79
2021/08/30 09:03:04;;;;;;;7.10;6.37;;;;;;;;;;5033614;28;20737;-78
2021/08/30 09:05:34;;;;;;;7.10;6.40;;;;;;;;;;5033928;28;20576;-78
2021/08/30 09:08:04;;;;;;;7.53;6.27;;;;;;;;;;5033748;28;20224;-78
2021/08/30 09:10:37;;;;;;;7.27;6.60;;;;;;;;;;5033355;28;20201;-79
2021/08/30 09:13:05;;;;;;;7.23;6.60;;;;;;;;;;5032083;28;20244;-79
2021/08/30 09:15:39;;;;;;;7.17;6.07;;;;;;;;;;5032262;28;20314;-78
2021/08/30 09:18:08;;;;;;;7.60;6.87;;;;;;;;;;5031987;28;20235;-78
2021/08/30 09:20:35;;;;;;;8.70;6.63;;;;;;;;;;5033407;28;20215;-79
2021/08/30 09:23:09;;;;;;;8.43;6.50;;;;;;;;;;5032039;28;20749;-79
2021/08/30 09:25:36;;;;;;;8.80;6.37;;;;;;;;;;5032100;28;20219;-78
2021/08/30 09:28:03;;;;;;;6.60;6.10;;;;;;;;;;5043748;28;20223;-77
2021/08/30 09:30:29;;;;;;;9.03;6.27;;;;;;;;;;5052953;28;20209;-78
2021/08/30 09:32:59;;;;;;;6.80;6.20;;;;;;;;;;5034956;28;20214;-78
2021/08/30 09:35:26;;;;;;;6.97;6.37;;;;;;;;;;5053285;28;20250;-79
2021/08/30 09:37:53;;;;;;;6.50;6.00;;;;;;;;;;5035484;28;20280;-78
2021/08/30 09:40:27;;;;;;;6.87;6.37;;;;;;;;;;5052732;28;20189;-78
2021/08/30 09:42:57;;;;;;;9.70;6.03;;;;;;;;;;5035082;28;20575;-77
2021/08/30 09:45:24;;;;;;;7.10;6.43;;;;;;;;;;5035077;28;20600;-78
2021/08/30 09:47:54;;;;;;;8.03;6.93;;;;;;;;;;5052725;28;20330;-78
2021/08/30 09:50:26;;;;;;;8.23;6.80;;;;;;;;;;5034835;28;20219;-78
2021/08/30 09:52:53;;;;;;;8.57;7.30;;;;;;;;;;5035262;28;20196;-79
2021/08/30 09:55:20;;;;;;;9.17;6.77;;;;;;;;;;5034511;28;20261;-78
2021/08/30 09:57:50;;;;;;;7.30;6.60;;;;;;;;;;5052836;28;20749;-79
2021/08/30 10:00:17;;;;;;;7.57;6.87;;;;;;;;;;5034853;28;20242;-78
2021/08/30 10:02:47;;;;;;;6.43;5.93;;;;;;;;;;5034153;28;20219;-79
2021/08/30 10:05:15;;;;;;;7.77;6.03;;;;;;;;;;5034694;28;20570;-78
2021/08/30 10:07:45;;;;;;;7.40;6.20;;;;;;;;;;5052331;28;20239;-79
2021/08/30 10:10:12;;;;;;;6.47;5.83;;;;;;;;;;5034747;28;20208;-79
2021/08/30 10:12:40;;;;;;;6.67;6.07;;;;;;;;;;5034185;28;20179;-79
2021/08/30 10:15:07;;;;;;;6.57;5.97;;;;;;;;;;5052482;28;20175;-79
2021/08/30 10:17:34;;;;;;;8.23;6.10;;;;;;;;;;5052702;28;20514;-79
2021/08/30 10:20:02;;;;;;;7.00;6.40;;;;;;;;;;5034838;28;20652;-80
2021/08/30 10:22:28;;;;;;;7.33;5.80;;;;;;;;;;5052625;28;20828;-79
2021/08/30 10:24:56;;;;;;;6.43;5.93;;;;;;;;;;5034557;28;20717;-79
2021/08/30 10:27:52;;;;;;;6.70;6.00;;;;;;;;;;5052614;28;20251;-79
2021/08/30 10:30:19;;;;;;;6.83;6.13;;;;;;;;;;5049370;28;20764;-80
2021/08/30 10:32:45;;;;;;;7.33;6.73;;;;;;;;;;5034588;28;20276;-79
2021/08/30 10:35:14;;;;;;;7.00;6.33;;;;;;;;;;5034194;28;20666;-79
2021/08/30 10:37:47;;;;;;;6.77;6.23;;;;;;;;;;5052093;28;20179;-79
2021/08/30 10:40:21;;;;;;;7.00;6.27;;;;;;;;;;5051514;28;20234;-79
2021/08/30 10:43:01;;;;;;;8.80;6.60;;;;;;;;;;5052233;28;20261;-79
2021/08/30 10:45:39;;;;;;;6.73;6.20;;;;;;;;;;5033958;28;20727;-79
2021/08/30 10:48:07;;;;;;;8.03;6.37;;;;;;;;;;5051831;28;20614;-78
2021/08/30 10:50:41;;;;;;;7.43;6.53;;;;;;;;;;5034008;28;20228;-78
2021/08/30 10:53:08;;;;;;;7.67;6.80;;;;;;;;;;5032924;28;20203;-79
2021/08/30 10:55:38;;;;;;;7.13;5.93;;;;;;;;;;5052028;28;20235;-78
2021/08/30 10:58:10;;;;;;;6.87;6.27;;;;;;;;;;5052501;28;20210;-80
2021/08/30 11:00:37;;;;;;;7.17;6.57;;;;;;;;;;5052516;28;20511;-77
2021/08/30 11:03:04;;;;;;;8.83;6.17;;;;;;;;;;5052152;28;20261;-78
2021/08/30 11:05:31;;;;;;;7.13;6.43;;;;;;;;;;5052039;28;20216;-78
2021/08/30 11:07:59;;;;;;;8.00;6.00;;;;;;;;;;5034178;28;20272;-79
2021/08/30 11:10:28;;;;;;;8.10;6.10;;;;;;;;;;5051677;28;20238;-78
2021/08/30 11:12:59;;;;;;;6.10;5.57;;;;;;;;;;5034301;28;20202;-79
2021/08/30 11:15:30;;;;;;;6.20;5.70;;;;;;;;;;5051593;28;20257;-78
2021/08/30 11:17:58;;;;;;;6.07;5.47;;;;;;;;;;5033842;28;20188;-78
2021/08/30 11:20:26;;;;;;;6.00;5.50;;;;;;;;;;5034163;28;20719;-78
2021/08/30 11:22:54;;;;;;;6.43;5.90;;;;;;;;;;5052958;28;20266;-78
2021/08/30 11:25:21;;;;;;;5.65;5.22;;;;;;;;;;5037959;28;20678;-77
2021/08/30 11:27:48;;;;;;;7.72;5.97;;;;;;;;;;5054762;28;20258;-79
2021/08/30 11:30:19;;;;;;;6.80;6.20;;;;;;;;;;5054879;28;20242;-78
2021/08/30 11:32:49;;;;;;;6.03;5.10;;;;;;;;;;5056057;28;20698;-77
2021/08/30 11:35:16;;;;;;;7.80;6.50;;;;;;;;;;5055812;28;20211;-78
2021/08/30 11:37:44;;;;;;;9.07;7.53;;;;;;;;;;5055377;28;20306;-78
2021/08/30 11:40:14;;;;;;;12.90;7.50;;;;;;;;;;5054149;28;20203;-79
2021/08/30 11:42:42;;;;;;;15.07;7.00;;;;;;;;;;5054252;28;20562;-78
2021/08/30 11:45:10;;;;;;;6.37;5.77;;;;;;;;;;5055438;28;20180;-78
2021/08/30 11:47:41;;;;;;;5.43;5.03;;;;;;;;;;5055294;28;20698;-79
2021/08/30 11:50:09;;;;;;;6.03;5.53;;;;;;;;;;5054887;28;20242;-79
2021/08/30 11:52:39;;;;;;;7.03;5.60;;;;;;;;;;5037411;28;20604;-78
2021/08/30 11:55:10;;;;;;;5.97;5.47;;;;;;;;;;5037281;28;20245;-81
2021/08/30 11:57:38;;;;;;;7.17;5.77;;;;;;;;;;5037507;28;20644;-78
2021/08/30 12:00:06;;;;;;;6.20;5.70;;;;;;;;;;5055026;28;20250;-80
2021/08/30 12:02:35;;;;;;;5.83;5.30;;;;;;;;;;5054063;28;20203;-80
2021/08/30 12:05:04;;;;;;;6.50;5.90;;;;;;;;;;5037068;28;20208;-79
2021/08/30 12:07:33;;;;;;;6.07;5.47;;;;;;;;;;5054772;28;20242;-80
2021/08/30 12:09:59;;;;;;;8.40;6.47;;;;;;;;;;5054039;28;20306;-79
2021/08/30 12:12:29;;;;;;;7.07;6.47;;;;;;;;;;5054681;28;20236;-80
2021/08/30 12:14:57;;;;;;;8.17;7.27;;;;;;;;;;5037305;28;20714;-79
2021/08/30 12:17:24;;;;;;;7.83;7.13;;;;;;;;;;5053684;28;20215;-80
2021/08/30 12:19:51;;;;;;;8.00;7.30;;;;;;;;;;5053597;28;20254;-79
2021/08/30 12:22:24;;;;;;;8.23;7.47;;;;;;;;;;5036185;28;20215;-79
2021/08/30 12:24:50;;;;;;;7.90;7.20;;;;;;;;;;5053863;28;20227;-79
2021/08/30 12:27:20;;;;;;;7.80;7.00;;;;;;;;;;5053959;28;20738;-80
2021/08/30 12:29:46;;;;;;;7.03;6.33;;;;;;;;;;5036660;28;20595;-79
2021/08/30 12:32:13;;;;;;;8.07;6.70;;;;;;;;;;5036467;28;20680;-79
2021/08/30 12:34:40;;;;;;;6.97;6.27;;;;;;;;;;5035851;28;20195;-80
2021/08/30 12:37:08;;;;;;;7.30;6.67;;;;;;;;;;5036266;28;20204;-77
2021/08/30 12:39:36;;;;;;;9.00;6.80;;;;;;;;;;5054238;28;20239;-79
2021/08/30 12:42:06;;;;;;;7.20;6.57;;;;;;;;;;5036607;28;20551;-78
2021/08/30 12:44:33;;;;;;;7.00;6.40;;;;;;;;;;5053061;28;20583;-78
2021/08/30 12:47:02;;;;;;;8.37;5.93;;;;;;;;;;5053639;28;20683;-79
2021/08/30 12:49:30;;;;;;;7.57;6.47;;;;;;;;;;5053951;28;20180;-76
2021/08/30 12:51:56;;;;;;;7.50;6.27;;;;;;;;;;5051987;28;20207;-80
2021/08/30 12:54:26;;;;;;;6.90;6.03;;;;;;;;;;5035939;28;20211;-81
2021/08/30 12:56:54;;;;;;;8.17;6.37;;;;;;;;;;5054236;28;20250;-80
2021/08/30 12:59:21;;;;;;;8.20;7.40;;;;;;;;;;5053381;28;20473;-81
2021/08/30 13:01:47;;;;;;;7.00;6.30;;;;;;;;;;5053780;28;20211;-80
2021/08/30 13:04:14;;;;;;;7.93;7.00;;;;;;;;;;5035692;28;20591;-80
2021/08/30 13:06:40;;;;;;;10.23;6.57;;;;;;;;;;5052558;28;20230;-80
2021/08/30 13:09:07;;;;;;;8.03;5.93;;;;;;;;;;5053919;28;20257;-80
2021/08/30 13:11:34;;;;;;;6.63;6.03;;;;;;;;;;5035438;28;20195;-80
2021/08/30 13:14:02;;;;;;;6.73;6.13;;;;;;;;;;5053676;28;20566;-80
2021/08/30 13:16:29;;;;;;;7.10;6.50;;;;;;;;;;5035331;28;20199;-80
2021/08/30 13:18:56;;;;;;;7.00;6.30;;;;;;;;;;5053452;28;20257;-80
2021/08/30 13:21:23;;;;;;;7.67;6.30;;;;;;;;;;5052093;28;20206;-80
2021/08/30 13:23:49;;;;;;;6.80;6.30;;;;;;;;;;5053128;28;20269;-79
2021/08/30 13:26:16;;;;;;;6.50;6.00;;;;;;;;;;5052663;28;20235;-79
2021/08/30 13:28:43;;;;;;;7.00;5.87;;;;;;;;;;5052882;28;20259;-81
2021/08/30 13:31:11;;;;;;;7.33;6.13;;;;;;;;;;5052750;28;20235;-80
2021/08/30 13:33:37;;;;;;;7.00;6.30;;;;;;;;;;5052888;28;20238;-80
2021/08/30 13:36:06;;;;;;;9.17;6.90;;;;;;;;;;5053232;28;20560;-80
2021/08/30 13:38:33;;;;;;;7.27;6.67;;;;;;;;;;5035294;28;20206;-80
2021/08/30 13:41:00;;;;;;;5.73;5.23;;;;;;;;;;5035105;28;20663;-79
2021/08/30 13:43:27;;;;;;;6.37;4.60;;;;;;;;;;5052751;28;20652;-79
2021/08/30 13:45:54;;;;;;;4.77;4.30;;;;;;;;;;5051310;28;20258;-81
2021/08/30 13:48:22;;;;;;;5.03;4.63;;;;;;;;;;5035077;28;20693;-81
2021/08/30 13:50:48;;;;;;;6.97;4.37;;;;;;;;;;5032343;28;20251;-82
2021/08/30 13:53:15;;;;;;;8.27;4.70;;;;;;;;;;5053146;28;20207;-83
2021/08/30 13:55:42;;;;;;;5.50;5.10;;;;;;;;;;5053075;28;20242;-83
2021/08/30 13:58:10;;;;;;;7.37;6.67;;;;;;;;;;5035026;28;20230;-83
2021/08/30 14:00:38;;;;;;;7.80;6.63;;;;;;;;;;5035295;28;20199;-82
2021/08/30 14:03:04;;;;;;;7.80;6.97;;;;;;;;;;5034220;28;20208;-83
2021/08/30 14:05:36;;;;;;;9.40;7.27;;;;;;;;;;5034910;28;20207;-81
2021/08/30 14:08:02;;;;;;;7.73;7.00;;;;;;;;;;5034282;28;20695;-81
2021/08/30 14:10:29;;;;;;;9.57;6.93;;;;;;;;;;5034803;28;20726;-84
2021/08/30 14:12:57;;;;;;;8.43;7.67;;;;;;;;;;5034100;28;20192;-84
2021/08/30 14:15:24;;;;;;;8.43;7.63;;;;;;;;;;5034600;28;20253;-85
2021/08/30 14:17:52;;;;;;;7.90;7.23;;;;;;;;;;5034150;28;20271;-83
2021/08/30 14:20:19;;;;;;;8.97;7.90;;;;;;;;;;5034129;28;20693;-86
2021/08/30 14:22:48;;;;;;;9.23;8.37;;;;;;;;;;5033864;28;20214;-84
2021/08/30 14:25:15;;;;;;;9.00;8.20;;;;;;;;;;5033683;28;20247;-84
2021/08/30 14:27:42;;;;;;;14.60;8.40;;;;;;;;;;5030702;28;20290;-84
2021/08/30 14:30:10;;;;;;;9.70;8.63;;;;;;;;;;5030774;28;20193;-86
2021/08/30 14:32:37;;;;;;;9.73;8.80;;;;;;;;;;5032281;28;20243;-85
2021/08/30 14:35:03;;;;;;;10.90;8.47;;;;;;;;;;5030648;28;20698;-84
2021/08/30 14:37:31;;;;;;;9.77;7.93;;;;;;;;;;5047005;28;20255;-85
2021/08/30 14:39:59;;;;;;;6.83;6.33;;;;;;;;;;5030471;28;20184;-84
2021/08/30 14:42:25;;;;;;;6.47;5.97;;;;;;;;;;5030452;28;20204;-85
2021/08/30 14:44:52;;;;;;;6.70;6.03;;;;;;;;;;5030358;28;20248;-85
2021/08/30 14:47:19;;;;;;;6.97;5.73;;;;;;;;;;5030463;28;20196;-82